sensor_id;sensor_type;location;lat;lon;timestamp;P1;durP1;ratioP1;P2;durP2;ratioP2
19225;SDS011;9747;48.536;12.522;2023-10-13T00:00:26;3.70;;;3.10;;
19225;SDS011;9747;48.536;12.522;2023-10-13T00:02:58;3.05;;;2.78;;
19225;SDS011;9747;48.536;12.522;2023-10-13T00:05:28;2.60;;;2.40;;
19225;SDS011;9747;48.536;12.522;2023-10-13T00:07:56;2.90;;;2.70;;
19225;SDS011;9747;48.536;12.522;2023-10-13T00:10:26;3.70;;;2.40;;
19225;SDS011;9747;48.536;12.522;2023-10-13T00:12:54;2.65;;;2.45;;
19225;SDS011;9747;48.536;12.522;2023-10-13T00:15:31;3.92;;;2.85;;
19225;SDS011;9747;48.536;12.522;2023-10-13T00:18:04;2.92;;;2.65;;
19225;SDS011;9747;48.536;12.522;2023-10-13T00:20:39;2.78;;;2.47;;
19225;SDS011;9747;48.536;12.522;2023-10-13T00:23:13;2.92;;;2.38;;
19225;SDS011;9747;48.536;12.522;2023-10-13T00:25:46;2.65;;;2.45;;
19225;SDS011;9747;48.536;12.522;2023-10-13T00:28:22;2.75;;;2.50;;
19225;SDS011;9747;48.536;12.522;2023-10-13T00:30:51;3.05;;;2.38;;
19225;SDS011;9747;48.536;12.522;2023-10-13T00:33:26;2.50;;;2.35;;
19225;SDS011;9747;48.536;12.522;2023-10-13T00:35:58;3.92;;;2.30;;
19225;SDS011;9747;48.536;12.522;2023-10-13T00:38:26;2.78;;;2.58;;
19225;SDS011;9747;48.536;12.522;2023-10-13T00:40:53;2.60;;;2.40;;
19225;SDS011;9747;48.536;12.522;2023-10-13T00:43:28;2.72;;;2.53;;
19225;SDS011;9747;48.536;12.522;2023-10-13T00:46:00;2.85;;;2.65;;
19225;SDS011;9747;48.536;12.522;2023-10-13T00:48:34;2.58;;;2.22;;
19225;SDS011;9747;48.536;12.522;2023-10-13T00:51:12;2.78;;;2.58;;
19225;SDS011;9747;48.536;12.522;2023-10-13T00:53:44;2.67;;;2.47;;
19225;SDS011;9747;48.536;12.522;2023-10-13T00:56:13;3.47;;;2.40;;
19225;SDS011;9747;48.536;12.522;2023-10-13T00:58:52;3.15;;;2.60;;
19225;SDS011;9747;48.536;12.522;2023-10-13T01:01:23;2.58;;;2.38;;
19225;SDS011;9747;48.536;12.522;2023-10-13T01:03:55;3.35;;;2.50;;
19225;SDS011;9747;48.536;12.522;2023-10-13T01:06:25;3.00;;;2.65;;
19225;SDS011;9747;48.536;12.522;2023-10-13T01:08:57;2.50;;;2.28;;
19225;SDS011;9747;48.536;12.522;2023-10-13T01:11:36;3.65;;;2.78;;
19225;SDS011;9747;48.536;12.522;2023-10-13T01:14:04;2.65;;;2.35;;
19225;SDS011;9747;48.536;12.522;2023-10-13T01:16:31;2.70;;;2.50;;
19225;SDS011;9747;48.536;12.522;2023-10-13T01:19:00;2.50;;;2.30;;
19225;SDS011;9747;48.536;12.522;2023-10-13T01:21:31;2.72;;;2.53;;
19225;SDS011;9747;48.536;12.522;2023-10-13T01:24:01;2.67;;;2.42;;
19225;SDS011;9747;48.536;12.522;2023-10-13T01:26:33;2.45;;;2.25;;
19225;SDS011;9747;48.536;12.522;2023-10-13T01:29:04;2.53;;;2.33;;
19225;SDS011;9747;48.536;12.522;2023-10-13T01:31:38;3.08;;;2.47;;
19225;SDS011;9747;48.536;12.522;2023-10-13T01:34:11;2.33;;;2.22;;
19225;SDS011;9747;48.536;12.522;2023-10-13T01:36:45;2.53;;;2.33;;
19225;SDS011;9747;48.536;12.522;2023-10-13T01:39:13;2.45;;;2.25;;
19225;SDS011;9747;48.536;12.522;2023-10-13T01:41:42;3.17;;;2.88;;
19225;SDS011;9747;48.536;12.522;2023-10-13T01:44:08;2.38;;;2.20;;
19225;SDS011;9747;48.536;12.522;2023-10-13T01:46:37;2.35;;;2.15;;
19225;SDS011;9747;48.536;12.522;2023-10-13T01:49:04;2.30;;;2.10;;
19225;SDS011;9747;48.536;12.522;2023-10-13T01:51:33;2.65;;;2.45;;
19225;SDS011;9747;48.536;12.522;2023-10-13T01:54:00;2.40;;;2.30;;
19225;SDS011;9747;48.536;12.522;2023-10-13T01:56:29;2.55;;;2.00;;
19225;SDS011;9747;48.536;12.522;2023-10-13T01:58:57;3.28;;;2.45;;
19225;SDS011;9747;48.536;12.522;2023-10-13T02:01:23;2.63;;;2.42;;
19225;SDS011;9747;48.536;12.522;2023-10-13T02:03:52;2.70;;;2.50;;
19225;SDS011;9747;48.536;12.522;2023-10-13T02:06:28;2.50;;;2.30;;
19225;SDS011;9747;48.536;12.522;2023-10-13T02:08:59;3.92;;;2.70;;
19225;SDS011;9747;48.536;12.522;2023-10-13T02:11:38;2.35;;;2.25;;
19225;SDS011;9747;48.536;12.522;2023-10-13T02:14:07;2.10;;;2.00;;
19225;SDS011;9747;48.536;12.522;2023-10-13T02:16:36;4.97;;;2.50;;
19225;SDS011;9747;48.536;12.522;2023-10-13T02:19:04;2.85;;;2.30;;
19225;SDS011;9747;48.536;12.522;2023-10-13T02:21:31;2.70;;;2.50;;
19225;SDS011;9747;48.536;12.522;2023-10-13T02:24:04;2.50;;;2.28;;
19225;SDS011;9747;48.536;12.522;2023-10-13T02:26:39;3.15;;;2.58;;
19225;SDS011;9747;48.536;12.522;2023-10-13T02:29:08;2.42;;;2.22;;
19225;SDS011;9747;48.536;12.522;2023-10-13T02:31:39;2.45;;;2.25;;
19225;SDS011;9747;48.536;12.522;2023-10-13T02:34:18;2.30;;;2.10;;
19225;SDS011;9747;48.536;12.522;2023-10-13T02:36:47;2.53;;;2.33;;
19225;SDS011;9747;48.536;12.522;2023-10-13T02:39:15;2.50;;;2.30;;
19225;SDS011;9747;48.536;12.522;2023-10-13T02:41:43;2.70;;;2.50;;
19225;SDS011;9747;48.536;12.522;2023-10-13T02:44:14;2.40;;;2.22;;
19225;SDS011;9747;48.536;12.522;2023-10-13T02:46:52;6.00;;;2.40;;
19225;SDS011;9747;48.536;12.522;2023-10-13T02:49:21;2.80;;;2.30;;
19225;SDS011;9747;48.536;12.522;2023-10-13T02:51:47;2.75;;;2.13;;
19225;SDS011;9747;48.536;12.522;2023-10-13T02:54:18;2.45;;;2.25;;
19225;SDS011;9747;48.536;12.522;2023-10-13T02:56:46;2.80;;;2.45;;
19225;SDS011;9747;48.536;12.522;2023-10-13T02:59:22;2.40;;;2.20;;
19225;SDS011;9747;48.536;12.522;2023-10-13T03:01:59;2.25;;;2.15;;
19225;SDS011;9747;48.536;12.522;2023-10-13T03:04:32;2.60;;;2.35;;
19225;SDS011;9747;48.536;12.522;2023-10-13T03:06:59;2.50;;;2.30;;
19225;SDS011;9747;48.536;12.522;2023-10-13T03:09:28;2.67;;;2.40;;
19225;SDS011;9747;48.536;12.522;2023-10-13T03:11:56;2.00;;;1.90;;
19225;SDS011;9747;48.536;12.522;2023-10-13T03:14:24;2.60;;;2.40;;
19225;SDS011;9747;48.536;12.522;2023-10-13T03:16:53;2.40;;;2.20;;
19225;SDS011;9747;48.536;12.522;2023-10-13T03:19:27;3.53;;;2.30;;
19225;SDS011;9747;48.536;12.522;2023-10-13T03:21:58;2.25;;;2.03;;
19225;SDS011;9747;48.536;12.522;2023-10-13T03:24:32;2.65;;;2.20;;
19225;SDS011;9747;48.536;12.522;2023-10-13T03:27:01;2.60;;;2.30;;
19225;SDS011;9747;48.536;12.522;2023-10-13T03:29:34;2.00;;;1.90;;
19225;SDS011;9747;48.536;12.522;2023-10-13T03:32:04;2.10;;;1.90;;
19225;SDS011;9747;48.536;12.522;2023-10-13T03:34:37;2.28;;;2.10;;
19225;SDS011;9747;48.536;12.522;2023-10-13T03:37:14;2.20;;;2.00;;
19225;SDS011;9747;48.536;12.522;2023-10-13T03:39:45;2.53;;;2.33;;
19225;SDS011;9747;48.536;12.522;2023-10-13T03:42:14;2.13;;;2.03;;
19225;SDS011;9747;48.536;12.522;2023-10-13T03:44:44;2.22;;;2.13;;
19225;SDS011;9747;48.536;12.522;2023-10-13T03:47:12;2.35;;;2.15;;
19225;SDS011;9747;48.536;12.522;2023-10-13T03:49:52;2.28;;;2.05;;
19225;SDS011;9747;48.536;12.522;2023-10-13T03:52:40;2.95;;;2.40;;
19225;SDS011;9747;48.536;12.522;2023-10-13T03:55:09;2.60;;;2.40;;
19225;SDS011;9747;48.536;12.522;2023-10-13T03:57:44;3.05;;;2.33;;
19225;SDS011;9747;48.536;12.522;2023-10-13T04:00:15;2.90;;;2.22;;
19225;SDS011;9747;48.536;12.522;2023-10-13T04:02:49;2.22;;;2.00;;
19225;SDS011;9747;48.536;12.522;2023-10-13T04:05:33;2.20;;;2.00;;
19225;SDS011;9747;48.536;12.522;2023-10-13T04:08:06;4.22;;;2.20;;
19225;SDS011;9747;48.536;12.522;2023-10-13T04:10:52;6.82;;;2.60;;
19225;SDS011;9747;48.536;12.522;2023-10-13T04:13:39;7.35;;;2.40;;
19225;SDS011;9747;48.536;12.522;2023-10-13T04:16:24;6.90;;;2.78;;
19225;SDS011;9747;48.536;12.522;2023-10-13T04:19:17;4.18;;;2.08;;
19225;SDS011;9747;48.536;12.522;2023-10-13T04:21:49;5.97;;;2.70;;
19225;SDS011;9747;48.536;12.522;2023-10-13T04:24:39;10.98;;;2.58;;
19225;SDS011;9747;48.536;12.522;2023-10-13T04:27:20;6.13;;;2.63;;
19225;SDS011;9747;48.536;12.522;2023-10-13T04:30:07;6.22;;;2.67;;
19225;SDS011;9747;48.536;12.522;2023-10-13T04:32:49;6.90;;;3.08;;
19225;SDS011;9747;48.536;12.522;2023-10-13T04:35:30;12.23;;;3.20;;
19225;SDS011;9747;48.536;12.522;2023-10-13T04:38:01;7.05;;;2.75;;
19225;SDS011;9747;48.536;12.522;2023-10-13T04:40:43;6.22;;;2.67;;
19225;SDS011;9747;48.536;12.522;2023-10-13T04:43:24;3.78;;;2.53;;
19225;SDS011;9747;48.536;12.522;2023-10-13T04:46:22;7.07;;;2.80;;
19225;SDS011;9747;48.536;12.522;2023-10-13T04:49:19;6.28;;;2.80;;
19225;SDS011;9747;48.536;12.522;2023-10-13T04:51:54;7.10;;;2.75;;
19225;SDS011;9747;48.536;12.522;2023-10-13T04:54:26;5.53;;;2.80;;
19225;SDS011;9747;48.536;12.522;2023-10-13T04:56:58;6.57;;;2.65;;
19225;SDS011;9747;48.536;12.522;2023-10-13T04:59:40;7.22;;;2.60;;
19225;SDS011;9747;48.536;12.522;2023-10-13T05:02:23;3.92;;;2.60;;
19225;SDS011;9747;48.536;12.522;2023-10-13T05:05:14;6.88;;;2.50;;
19225;SDS011;9747;48.536;12.522;2023-10-13T05:07:59;6.20;;;2.67;;
19225;SDS011;9747;48.536;12.522;2023-10-13T05:10:43;4.75;;;2.58;;
19225;SDS011;9747;48.536;12.522;2023-10-13T05:13:28;3.25;;;2.47;;
19225;SDS011;9747;48.536;12.522;2023-10-13T05:16:13;4.07;;;2.65;;
19225;SDS011;9747;48.536;12.522;2023-10-13T05:18:59;7.43;;;2.83;;
19225;SDS011;9747;48.536;12.522;2023-10-13T05:21:44;5.70;;;2.60;;
19225;SDS011;9747;48.536;12.522;2023-10-13T05:24:29;5.07;;;2.90;;
19225;SDS011;9747;48.536;12.522;2023-10-13T05:27:13;9.23;;;2.67;;
19225;SDS011;9747;48.536;12.522;2023-10-13T05:29:58;6.82;;;2.40;;
19225;SDS011;9747;48.536;12.522;2023-10-13T05:32:43;3.90;;;2.65;;
19225;SDS011;9747;48.536;12.522;2023-10-13T05:35:30;4.78;;;2.50;;
19225;SDS011;9747;48.536;12.522;2023-10-13T05:38:15;5.35;;;3.05;;
19225;SDS011;9747;48.536;12.522;2023-10-13T05:41:01;6.82;;;2.47;;
19225;SDS011;9747;48.536;12.522;2023-10-13T05:43:48;3.88;;;2.60;;
19225;SDS011;9747;48.536;12.522;2023-10-13T05:46:34;7.22;;;2.65;;
19225;SDS011;9747;48.536;12.522;2023-10-13T05:49:14;3.65;;;2.80;;
19225;SDS011;9747;48.536;12.522;2023-10-13T05:52:00;4.28;;;2.67;;
19225;SDS011;9747;48.536;12.522;2023-10-13T05:54:44;6.10;;;2.80;;
19225;SDS011;9747;48.536;12.522;2023-10-13T05:57:30;5.32;;;2.50;;
19225;SDS011;9747;48.536;12.522;2023-10-13T06:00:15;3.50;;;2.42;;
19225;SDS011;9747;48.536;12.522;2023-10-13T06:03:01;3.25;;;2.55;;
19225;SDS011;9747;48.536;12.522;2023-10-13T06:05:47;3.40;;;2.80;;
19225;SDS011;9747;48.536;12.522;2023-10-13T06:08:34;6.85;;;2.88;;
19225;SDS011;9747;48.536;12.522;2023-10-13T06:11:19;4.35;;;2.90;;
19225;SDS011;9747;48.536;12.522;2023-10-13T06:14:04;5.72;;;2.72;;
19225;SDS011;9747;48.536;12.522;2023-10-13T06:16:49;4.30;;;2.60;;
19225;SDS011;9747;48.536;12.522;2023-10-13T06:19:33;4.07;;;2.63;;
19225;SDS011;9747;48.536;12.522;2023-10-13T06:22:18;4.25;;;2.75;;
19225;SDS011;9747;48.536;12.522;2023-10-13T06:25:05;4.72;;;2.70;;
19225;SDS011;9747;48.536;12.522;2023-10-13T06:27:51;3.13;;;2.67;;
19225;SDS011;9747;48.536;12.522;2023-10-13T06:30:35;2.92;;;2.70;;
19225;SDS011;9747;48.536;12.522;2023-10-13T06:33:04;2.95;;;2.50;;
19225;SDS011;9747;48.536;12.522;2023-10-13T06:35:31;4.32;;;2.42;;
19225;SDS011;9747;48.536;12.522;2023-10-13T06:37:59;3.40;;;2.65;;
19225;SDS011;9747;48.536;12.522;2023-10-13T06:40:29;5.93;;;2.53;;
19225;SDS011;9747;48.536;12.522;2023-10-13T06:42:59;3.33;;;2.75;;
19225;SDS011;9747;48.536;12.522;2023-10-13T06:45:39;4.25;;;2.88;;
19225;SDS011;9747;48.536;12.522;2023-10-13T06:48:08;4.05;;;2.90;;
19225;SDS011;9747;48.536;12.522;2023-10-13T06:50:39;2.75;;;2.45;;
19225;SDS011;9747;48.536;12.522;2023-10-13T06:53:07;4.30;;;2.83;;
19225;SDS011;9747;48.536;12.522;2023-10-13T06:55:39;2.58;;;2.38;;
19225;SDS011;9747;48.536;12.522;2023-10-13T06:58:06;3.28;;;2.50;;
19225;SDS011;9747;48.536;12.522;2023-10-13T07:00:38;3.38;;;2.67;;
19225;SDS011;9747;48.536;12.522;2023-10-13T07:03:17;3.30;;;2.47;;
19225;SDS011;9747;48.536;12.522;2023-10-13T07:05:46;3.63;;;2.58;;
19225;SDS011;9747;48.536;12.522;2023-10-13T07:08:14;3.30;;;2.78;;
19225;SDS011;9747;48.536;12.522;2023-10-13T07:10:49;3.47;;;3.05;;
19225;SDS011;9747;48.536;12.522;2023-10-13T07:13:26;3.03;;;2.72;;
19225;SDS011;9747;48.536;12.522;2023-10-13T07:15:54;4.68;;;3.08;;
19225;SDS011;9747;48.536;12.522;2023-10-13T07:18:27;4.03;;;3.05;;
19225;SDS011;9747;48.536;12.522;2023-10-13T07:21:01;3.80;;;2.85;;
19225;SDS011;9747;48.536;12.522;2023-10-13T07:23:35;3.67;;;2.90;;
19225;SDS011;9747;48.536;12.522;2023-10-13T07:26:04;6.35;;;3.05;;
19225;SDS011;9747;48.536;12.522;2023-10-13T07:28:33;6.30;;;3.15;;
19225;SDS011;9747;48.536;12.522;2023-10-13T07:31:08;4.80;;;2.72;;
19225;SDS011;9747;48.536;12.522;2023-10-13T07:33:40;6.72;;;2.90;;
19225;SDS011;9747;48.536;12.522;2023-10-13T07:36:08;5.32;;;2.88;;
19225;SDS011;9747;48.536;12.522;2023-10-13T07:38:43;5.47;;;3.00;;
19225;SDS011;9747;48.536;12.522;2023-10-13T07:41:35;4.95;;;3.00;;
19225;SDS011;9747;48.536;12.522;2023-10-13T07:44:07;5.68;;;3.13;;
19225;SDS011;9747;48.536;12.522;2023-10-13T07:46:38;3.35;;;2.90;;
19225;SDS011;9747;48.536;12.522;2023-10-13T07:49:05;6.00;;;3.20;;
19225;SDS011;9747;48.536;12.522;2023-10-13T07:51:36;5.88;;;3.22;;
19225;SDS011;9747;48.536;12.522;2023-10-13T07:54:09;6.22;;;3.35;;
19225;SDS011;9747;48.536;12.522;2023-10-13T07:56:40;3.85;;;2.95;;
19225;SDS011;9747;48.536;12.522;2023-10-13T07:59:07;5.20;;;3.20;;
19225;SDS011;9747;48.536;12.522;2023-10-13T08:01:35;7.22;;;3.53;;
19225;SDS011;9747;48.536;12.522;2023-10-13T08:04:08;4.90;;;3.13;;
19225;SDS011;9747;48.536;12.522;2023-10-13T08:06:38;4.53;;;3.38;;
19225;SDS011;9747;48.536;12.522;2023-10-13T08:09:07;5.00;;;3.28;;
19225;SDS011;9747;48.536;12.522;2023-10-13T08:11:56;4.07;;;2.70;;
19225;SDS011;9747;48.536;12.522;2023-10-13T08:14:25;5.40;;;2.95;;
19225;SDS011;9747;48.536;12.522;2023-10-13T08:16:54;6.05;;;3.05;;
19225;SDS011;9747;48.536;12.522;2023-10-13T08:19:25;4.07;;;3.00;;
19225;SDS011;9747;48.536;12.522;2023-10-13T08:21:59;3.15;;;2.83;;
19225;SDS011;9747;48.536;12.522;2023-10-13T08:24:49;4.93;;;2.78;;
19225;SDS011;9747;48.536;12.522;2023-10-13T08:27:42;4.55;;;2.85;;
19225;SDS011;9747;48.536;12.522;2023-10-13T08:30:15;4.13;;;2.80;;
19225;SDS011;9747;48.536;12.522;2023-10-13T08:32:55;4.13;;;2.90;;
19225;SDS011;9747;48.536;12.522;2023-10-13T08:35:24;3.55;;;2.80;;
19225;SDS011;9747;48.536;12.522;2023-10-13T08:38:00;4.22;;;3.22;;
19225;SDS011;9747;48.536;12.522;2023-10-13T08:40:43;4.38;;;2.60;;
19225;SDS011;9747;48.536;12.522;2023-10-13T08:43:32;4.10;;;2.85;;
19225;SDS011;9747;48.536;12.522;2023-10-13T08:46:10;3.10;;;2.47;;
19225;SDS011;9747;48.536;12.522;2023-10-13T08:48:51;6.63;;;2.83;;
19225;SDS011;9747;48.536;12.522;2023-10-13T08:51:30;3.83;;;2.65;;
19225;SDS011;9747;48.536;12.522;2023-10-13T08:54:11;3.88;;;2.85;;
19225;SDS011;9747;48.536;12.522;2023-10-13T08:56:46;3.40;;;2.50;;
19225;SDS011;9747;48.536;12.522;2023-10-13T08:59:22;3.08;;;2.78;;
19225;SDS011;9747;48.536;12.522;2023-10-13T09:01:59;4.13;;;2.78;;
19225;SDS011;9747;48.536;12.522;2023-10-13T09:04:42;2.92;;;2.40;;
19225;SDS011;9747;48.536;12.522;2023-10-13T09:07:10;4.55;;;3.00;;
19225;SDS011;9747;48.536;12.522;2023-10-13T09:09:47;3.10;;;2.63;;
19225;SDS011;9747;48.536;12.522;2023-10-13T09:12:25;3.08;;;2.67;;
19225;SDS011;9747;48.536;12.522;2023-10-13T09:15:07;4.05;;;3.20;;
19225;SDS011;9747;48.536;12.522;2023-10-13T09:17:52;3.92;;;2.80;;
19225;SDS011;9747;48.536;12.522;2023-10-13T09:20:38;5.53;;;2.45;;
19225;SDS011;9747;48.536;12.522;2023-10-13T09:23:11;4.82;;;3.13;;
19225;SDS011;9747;48.536;12.522;2023-10-13T09:25:49;2.80;;;2.60;;
19225;SDS011;9747;48.536;12.522;2023-10-13T09:28:23;3.30;;;2.67;;
19225;SDS011;9747;48.536;12.522;2023-10-13T09:30:55;3.47;;;2.70;;
19225;SDS011;9747;48.536;12.522;2023-10-13T09:33:23;3.10;;;2.80;;
19225;SDS011;9747;48.536;12.522;2023-10-13T09:35:58;3.53;;;2.63;;
19225;SDS011;9747;48.536;12.522;2023-10-13T09:38:26;5.97;;;2.95;;
19225;SDS011;9747;48.536;12.522;2023-10-13T09:40:56;3.35;;;2.70;;
19225;SDS011;9747;48.536;12.522;2023-10-13T09:43:22;4.18;;;2.78;;
19225;SDS011;9747;48.536;12.522;2023-10-13T09:45:55;3.10;;;2.63;;
19225;SDS011;9747;48.536;12.522;2023-10-13T09:48:33;2.47;;;2.28;;
19225;SDS011;9747;48.536;12.522;2023-10-13T09:51:06;4.63;;;2.83;;
19225;SDS011;9747;48.536;12.522;2023-10-13T09:53:38;4.18;;;2.30;;
19225;SDS011;9747;48.536;12.522;2023-10-13T09:56:12;5.03;;;2.60;;
19225;SDS011;9747;48.536;12.522;2023-10-13T09:58:47;3.78;;;2.70;;
19225;SDS011;9747;48.536;12.522;2023-10-13T10:01:24;3.28;;;2.90;;
19225;SDS011;9747;48.536;12.522;2023-10-13T10:04:06;2.88;;;2.53;;
19225;SDS011;9747;48.536;12.522;2023-10-13T10:06:36;4.55;;;2.47;;
19225;SDS011;9747;48.536;12.522;2023-10-13T10:09:05;2.70;;;2.50;;
19225;SDS011;9747;48.536;12.522;2023-10-13T10:14:56;3.58;;;2.72;;
19225;SDS011;9747;48.536;12.522;2023-10-13T10:17:54;5.15;;;2.70;;
19225;SDS011;9747;48.536;12.522;2023-10-13T10:20:27;4.18;;;2.70;;
19225;SDS011;9747;48.536;12.522;2023-10-13T10:23:09;2.67;;;2.22;;
19225;SDS011;9747;48.536;12.522;2023-10-13T10:25:48;2.60;;;2.40;;
19225;SDS011;9747;48.536;12.522;2023-10-13T10:28:17;2.67;;;2.47;;
19225;SDS011;9747;48.536;12.522;2023-10-13T10:30:45;3.40;;;2.58;;
19225;SDS011;9747;48.536;12.522;2023-10-13T10:33:14;2.70;;;2.50;;
19225;SDS011;9747;48.536;12.522;2023-10-13T10:35:44;3.20;;;2.75;;
19225;SDS011;9747;48.536;12.522;2023-10-13T10:38:13;4.22;;;2.90;;
19225;SDS011;9747;48.536;12.522;2023-10-13T10:40:49;2.90;;;2.60;;
19225;SDS011;9747;48.536;12.522;2023-10-13T10:43:23;3.70;;;2.70;;
19225;SDS011;9747;48.536;12.522;2023-10-13T10:45:54;4.47;;;2.55;;
19225;SDS011;9747;48.536;12.522;2023-10-13T10:48:26;3.85;;;2.22;;
19225;SDS011;9747;48.536;12.522;2023-10-13T10:51:03;4.35;;;2.63;;
19225;SDS011;9747;48.536;12.522;2023-10-13T10:53:40;4.53;;;2.78;;
19225;SDS011;9747;48.536;12.522;2023-10-13T10:56:12;5.60;;;2.78;;
19225;SDS011;9747;48.536;12.522;2023-10-13T10:58:48;4.07;;;2.60;;
19225;SDS011;9747;48.536;12.522;2023-10-13T11:01:20;7.70;;;3.03;;
19225;SDS011;9747;48.536;12.522;2023-10-13T11:03:56;5.90;;;2.88;;
19225;SDS011;9747;48.536;12.522;2023-10-13T11:06:32;3.67;;;2.47;;
19225;SDS011;9747;48.536;12.522;2023-10-13T11:09:07;5.80;;;2.90;;
19225;SDS011;9747;48.536;12.522;2023-10-13T11:11:46;4.90;;;2.65;;
19225;SDS011;9747;48.536;12.522;2023-10-13T11:14:20;6.03;;;2.83;;
19225;SDS011;9747;48.536;12.522;2023-10-13T11:16:52;3.60;;;2.67;;
19225;SDS011;9747;48.536;12.522;2023-10-13T11:19:21;3.25;;;2.78;;
19225;SDS011;9747;48.536;12.522;2023-10-13T11:22:09;4.95;;;2.60;;
19225;SDS011;9747;48.536;12.522;2023-10-13T11:24:54;3.13;;;2.33;;
19225;SDS011;9747;48.536;12.522;2023-10-13T11:27:27;4.32;;;2.60;;
19225;SDS011;9747;48.536;12.522;2023-10-13T11:30:10;4.80;;;3.08;;
19225;SDS011;9747;48.536;12.522;2023-10-13T11:32:39;6.57;;;3.30;;
19225;SDS011;9747;48.536;12.522;2023-10-13T11:35:09;8.23;;;4.03;;
19225;SDS011;9747;48.536;12.522;2023-10-13T11:37:45;12.50;;;3.65;;
19225;SDS011;9747;48.536;12.522;2023-10-13T11:40:21;12.50;;;4.22;;
19225;SDS011;9747;48.536;12.522;2023-10-13T11:43:09;11.00;;;3.72;;
19225;SDS011;9747;48.536;12.522;2023-10-13T11:45:39;11.55;;;4.10;;
19225;SDS011;9747;48.536;12.522;2023-10-13T11:48:20;10.00;;;3.47;;
19225;SDS011;9747;48.536;12.522;2023-10-13T11:51:01;10.48;;;3.65;;
19225;SDS011;9747;48.536;12.522;2023-10-13T11:53:32;10.32;;;3.33;;
19225;SDS011;9747;48.536;12.522;2023-10-13T11:56:00;7.22;;;2.75;;
19225;SDS011;9747;48.536;12.522;2023-10-13T11:58:33;12.70;;;3.42;;
19225;SDS011;9747;48.536;12.522;2023-10-13T12:01:01;6.88;;;3.20;;
19225;SDS011;9747;48.536;12.522;2023-10-13T12:03:46;8.18;;;3.17;;
19225;SDS011;9747;48.536;12.522;2023-10-13T12:06:34;7.53;;;2.88;;
19225;SDS011;9747;48.536;12.522;2023-10-13T12:09:12;5.03;;;2.83;;
19225;SDS011;9747;48.536;12.522;2023-10-13T12:12:04;5.45;;;2.72;;
19225;SDS011;9747;48.536;12.522;2023-10-13T12:14:33;6.28;;;2.70;;
19225;SDS011;9747;48.536;12.522;2023-10-13T12:17:03;9.30;;;3.08;;
19225;SDS011;9747;48.536;12.522;2023-10-13T12:19:35;7.38;;;3.00;;
19225;SDS011;9747;48.536;12.522;2023-10-13T12:22:08;8.05;;;3.10;;
19225;SDS011;9747;48.536;12.522;2023-10-13T12:24:50;3.67;;;2.20;;
19225;SDS011;9747;48.536;12.522;2023-10-13T12:27:19;9.27;;;2.90;;
19225;SDS011;9747;48.536;12.522;2023-10-13T12:29:48;5.10;;;2.90;;
19225;SDS011;9747;48.536;12.522;2023-10-13T12:32:17;5.63;;;2.53;;
19225;SDS011;9747;48.536;12.522;2023-10-13T12:34:48;4.07;;;2.60;;
19225;SDS011;9747;48.536;12.522;2023-10-13T12:41:16;6.32;;;2.70;;
19225;SDS011;9747;48.536;12.522;2023-10-13T12:44:03;9.07;;;2.75;;
19225;SDS011;9747;48.536;12.522;2023-10-13T12:46:50;5.97;;;2.53;;
19225;SDS011;9747;48.536;12.522;2023-10-13T12:49:35;9.27;;;3.15;;
19225;SDS011;9747;48.536;12.522;2023-10-13T12:52:17;5.68;;;2.60;;
19225;SDS011;9747;48.536;12.522;2023-10-13T12:54:46;7.75;;;2.58;;
19225;SDS011;9747;48.536;12.522;2023-10-13T12:57:24;4.10;;;2.35;;
19225;SDS011;9747;48.536;12.522;2023-10-13T12:59:52;5.82;;;2.80;;
19225;SDS011;9747;48.536;12.522;2023-10-13T13:02:20;6.38;;;2.53;;
19225;SDS011;9747;48.536;12.522;2023-10-13T13:04:50;10.52;;;2.67;;
19225;SDS011;9747;48.536;12.522;2023-10-13T13:07:21;4.82;;;2.30;;
19225;SDS011;9747;48.536;12.522;2023-10-13T13:09:55;4.88;;;2.45;;
19225;SDS011;9747;48.536;12.522;2023-10-13T13:12:25;6.80;;;2.92;;
19225;SDS011;9747;48.536;12.522;2023-10-13T13:14:53;5.93;;;2.60;;
19225;SDS011;9747;48.536;12.522;2023-10-13T13:17:21;5.47;;;2.63;;
19225;SDS011;9747;48.536;12.522;2023-10-13T13:19:48;3.50;;;2.50;;
19225;SDS011;9747;48.536;12.522;2023-10-13T13:22:15;8.30;;;2.58;;
19225;SDS011;9747;48.536;12.522;2023-10-13T13:24:43;4.95;;;2.78;;
19225;SDS011;9747;48.536;12.522;2023-10-13T13:27:14;5.60;;;2.67;;
19225;SDS011;9747;48.536;12.522;2023-10-13T13:29:44;4.68;;;2.47;;
19225;SDS011;9747;48.536;12.522;2023-10-13T13:32:12;5.50;;;2.53;;
19225;SDS011;9747;48.536;12.522;2023-10-13T13:34:44;3.97;;;2.60;;
19225;SDS011;9747;48.536;12.522;2023-10-13T13:37:19;5.55;;;2.60;;
19225;SDS011;9747;48.536;12.522;2023-10-13T13:39:47;5.40;;;2.60;;
19225;SDS011;9747;48.536;12.522;2023-10-13T13:42:19;4.75;;;2.30;;
19225;SDS011;9747;48.536;12.522;2023-10-13T13:44:46;5.97;;;2.65;;
19225;SDS011;9747;48.536;12.522;2023-10-13T13:47:14;5.88;;;2.70;;
19225;SDS011;9747;48.536;12.522;2023-10-13T13:49:42;6.30;;;2.30;;
19225;SDS011;9747;48.536;12.522;2023-10-13T13:52:16;4.47;;;2.40;;
19225;SDS011;9747;48.536;12.522;2023-10-13T13:54:47;6.57;;;2.85;;
19225;SDS011;9747;48.536;12.522;2023-10-13T13:57:14;3.42;;;2.50;;
19225;SDS011;9747;48.536;12.522;2023-10-13T13:59:44;7.55;;;2.80;;
19225;SDS011;9747;48.536;12.522;2023-10-13T14:02:11;6.10;;;2.50;;
19225;SDS011;9747;48.536;12.522;2023-10-13T14:04:45;5.93;;;2.65;;
19225;SDS011;9747;48.536;12.522;2023-10-13T14:07:17;5.65;;;2.28;;
19225;SDS011;9747;48.536;12.522;2023-10-13T14:09:46;4.75;;;2.70;;
19225;SDS011;9747;48.536;12.522;2023-10-13T14:12:17;7.65;;;2.83;;
19225;SDS011;9747;48.536;12.522;2023-10-13T14:15:00;4.97;;;2.45;;
19225;SDS011;9747;48.536;12.522;2023-10-13T14:17:28;6.63;;;2.60;;
19225;SDS011;9747;48.536;12.522;2023-10-13T14:19:58;7.10;;;2.90;;
19225;SDS011;9747;48.536;12.522;2023-10-13T14:22:26;10.10;;;2.80;;
19225;SDS011;9747;48.536;12.522;2023-10-13T14:24:54;5.32;;;2.67;;
19225;SDS011;9747;48.536;12.522;2023-10-13T14:27:21;6.38;;;2.53;;
19225;SDS011;9747;48.536;12.522;2023-10-13T14:29:51;6.78;;;2.65;;
19225;SDS011;9747;48.536;12.522;2023-10-13T14:32:20;9.02;;;2.88;;
19225;SDS011;9747;48.536;12.522;2023-10-13T14:34:52;7.05;;;2.60;;
19225;SDS011;9747;48.536;12.522;2023-10-13T14:37:21;5.63;;;2.70;;
19225;SDS011;9747;48.536;12.522;2023-10-13T14:39:55;5.22;;;2.20;;
19225;SDS011;9747;48.536;12.522;2023-10-13T14:42:23;4.78;;;2.42;;
19225;SDS011;9747;48.536;12.522;2023-10-13T14:44:51;8.50;;;2.65;;
19225;SDS011;9747;48.536;12.522;2023-10-13T14:47:23;7.28;;;2.50;;
19225;SDS011;9747;48.536;12.522;2023-10-13T14:49:52;10.60;;;2.67;;
19225;SDS011;9747;48.536;12.522;2023-10-13T14:52:25;8.20;;;2.85;;
19225;SDS011;9747;48.536;12.522;2023-10-13T14:54:56;8.32;;;2.67;;
19225;SDS011;9747;48.536;12.522;2023-10-13T14:57:24;7.18;;;2.47;;
19225;SDS011;9747;48.536;12.522;2023-10-13T14:59:52;8.93;;;2.50;;
19225;SDS011;9747;48.536;12.522;2023-10-13T15:02:20;7.50;;;2.75;;
19225;SDS011;9747;48.536;12.522;2023-10-13T15:04:49;6.35;;;2.53;;
19225;SDS011;9747;48.536;12.522;2023-10-13T15:07:17;10.43;;;2.90;;
19225;SDS011;9747;48.536;12.522;2023-10-13T15:09:45;8.52;;;2.47;;
19225;SDS011;9747;48.536;12.522;2023-10-13T15:12:12;7.05;;;2.78;;
19225;SDS011;9747;48.536;12.522;2023-10-13T15:14:40;8.27;;;3.17;;
19225;SDS011;9747;48.536;12.522;2023-10-13T15:17:09;7.05;;;3.00;;
19225;SDS011;9747;48.536;12.522;2023-10-13T15:19:37;8.68;;;2.08;;
19225;SDS011;9747;48.536;12.522;2023-10-13T15:22:08;10.82;;;2.70;;
19225;SDS011;9747;48.536;12.522;2023-10-13T15:24:42;7.35;;;2.53;;
19225;SDS011;9747;48.536;12.522;2023-10-13T15:27:22;6.88;;;2.78;;
19225;SDS011;9747;48.536;12.522;2023-10-13T15:29:50;6.47;;;2.50;;
19225;SDS011;9747;48.536;12.522;2023-10-13T15:32:17;6.65;;;2.28;;
19225;SDS011;9747;48.536;12.522;2023-10-13T15:35:04;6.60;;;2.70;;
19225;SDS011;9747;48.536;12.522;2023-10-13T15:37:37;6.50;;;2.78;;